FIN5H EFHK-LOWW
Flight info
| Callsign | FIN5H |
|---|---|
| Flight time | N/A |
| Altitude | 36000 |
| Route | KOIVU DCT LARTI DCT NAVOT DCT LUTAL P870 BERIL DCT SUWGI DCT TITUV M985 EVINA DCT BAVOK DCT MIKOV MIKOV8W |
| Aircraft | A321/M-SDE3FGHIRWY/LB1 |
Departure
| Time | 2026-05-07 19:05 |
|---|---|
| Airport | Helsinki Vantaa Airport (EFHK) |
Arrival
| Time | N/A |
|---|---|
| Airport | Vienna International Airport (LOWW) |
| Time | Latitude | Longitude | Altitude | Speed | Heading |
|---|---|---|---|---|---|
| 2026-05-07 18:40 | 60.31710 | 24.97163 | 194 ft | 0 kts | 243° |
| 2026-05-07 18:56 | 60.31715 | 24.97180 | 193 ft | 2 kts | 243° |
| 2026-05-07 18:56 | 60.31721 | 24.97207 | 193 ft | 2 kts | 243° |
| 2026-05-07 18:57 | 60.31728 | 24.97234 | 193 ft | 2 kts | 243° |
| 2026-05-07 18:57 | 60.31735 | 24.97260 | 193 ft | 2 kts | 244° |
| 2026-05-07 18:57 | 60.31734 | 24.97286 | 193 ft | 2 kts | 310° |
| 2026-05-07 18:57 | 60.31728 | 24.97296 | 193 ft | 0 kts | 339° |
| 2026-05-07 18:58 | 60.31740 | 24.97281 | 193 ft | 1 kts | 331° |
| 2026-05-07 18:58 | 60.31742 | 24.97279 | 193 ft | 0 kts | 331° |
| 2026-05-07 18:59 | 60.31757 | 24.97263 | 193 ft | 10 kts | 333° |
| 2026-05-07 18:59 | 60.31816 | 24.97204 | 191 ft | 9 kts | 333° |
| 2026-05-07 19:00 | 60.31869 | 24.97151 | 190 ft | 10 kts | 334° |
| 2026-05-07 19:00 | 60.31944 | 24.97067 | 187 ft | 14 kts | 334° |
| 2026-05-07 19:00 | 60.32024 | 24.96990 | 183 ft | 9 kts | 333° |
| 2026-05-07 19:00 | 60.32093 | 24.96911 | 180 ft | 13 kts | 330° |
| 2026-05-07 19:01 | 60.32166 | 24.96824 | 178 ft | 12 kts | 330° |
| 2026-05-07 19:01 | 60.32214 | 24.96770 | 178 ft | 7 kts | 332° |
| 2026-05-07 19:01 | 60.32263 | 24.96715 | 178 ft | 8 kts | 329° |
| 2026-05-07 19:01 | 60.32307 | 24.96663 | 178 ft | 5 kts | 329° |
| 2026-05-07 19:02 | 60.32340 | 24.96624 | 179 ft | 9 kts | 330° |
| 2026-05-07 19:02 | 60.32413 | 24.96537 | 183 ft | 10 kts | 320° |
| 2026-05-07 19:02 | 60.32413 | 24.96465 | 186 ft | 0 kts | 226° |
| 2026-05-07 19:04 | 60.32292 | 24.96200 | 193 ft | 67 kts | 227° |
| 2026-05-07 19:05 | 60.31764 | 24.95036 | 184 ft | 152 kts | 227° |
| 2026-05-07 19:05 | 60.30940 | 24.93239 | 600 ft | 188 kts | 227° |
| 2026-05-07 19:05 | 60.29966 | 24.91363 | 1404 ft | 208 kts | 218° |
| 2026-05-07 19:05 | 60.28708 | 24.89576 | 2030 ft | 242 kts | 220° |
| 2026-05-07 19:06 | 60.27486 | 24.87189 | 2674 ft | 235 kts | 225° |